TW-0031 weather

Zhuzi Shan Helipad
Taipei County, Taiwan

Public forecast

Using degrees Celsius for public forecast. Weather courtesy of forecast.io.

Closest aviation weather report (METAR) to Zhuzi Shan Helipad

Closest report is Taipei Songshan Airport, 8.8 nm (16.3 km) S. Retrieved 2019/11/18 02:30 UTC (0 seconds ago):

RCSS 180230Z 06011KT 020V090 4000 -RA FEW012 BKN017 BKN040 23/20 Q1017 NOSIG RMK A3005

Closest aviation forecast (TAF) to Zhuzi Shan Helipad

Closest forecast is Taipei Songshan Airport, 8.8 nm (16.3 km) S. Retrieved 2019-11-18 00:00 UTC (2 hours ago):

TAF RCSS 172300Z 1800/1824 09012KT 9999 FEW012 BKN032 BKN060 TEMPO 1800/1802 5000 RA FEW010 BKN020 BKN050 TEMPO 1802/1808 08013G23KT TEMPO 1808/1814 5000 RA FEW010 BKN020 BKN050 TEMPO 1820/1824 5000 RA FEW010 BKN020 BKN050